Time;durP1;ratioP1;P1;durP2;ratioP2;P2;SDS_P1;SDS_P2;PMS_P1;PMS_P2;Temp;Humidity;BMP_temperature;BMP_pressure;BME280_temperature;BME280_humidity;BME280_pressure;Samples;Min_cycle;Max_cycle;Signal;HPM_P1;HPM_P2
2021/10/20 00:00:16;;;;;;;3.30;2.20;;;;;;;;;;4976792;28;20666;-77
2021/10/20 00:03:21;;;;;;;2.80;2.20;;;;;;;;;;4974483;28;20645;-77
2021/10/20 00:06:25;;;;;;;3.00;2.10;;;;;;;;;;4973900;28;20213;-77
2021/10/20 00:09:29;;;;;;;2.70;2.10;;;;;;;;;;4979637;28;20198;-77
2021/10/20 00:12:33;;;;;;;3.17;2.20;;;;;;;;;;4956871;28;20224;-77
2021/10/20 00:15:37;;;;;;;4.00;2.17;;;;;;;;;;4963771;28;20199;-77
2021/10/20 00:18:47;;;;;;;4.77;2.10;;;;;;;;;;4987626;28;20198;-77
2021/10/20 00:21:51;;;;;;;3.63;2.03;;;;;;;;;;4976884;28;20219;-77
2021/10/20 00:24:55;;;;;;;3.93;2.10;;;;;;;;;;4978101;28;20198;-77
2021/10/20 00:27:59;;;;;;;3.43;2.20;;;;;;;;;;4962063;28;20190;-77
2021/10/20 00:31:03;;;;;;;3.60;2.50;;;;;;;;;;4950759;28;20230;-77
2021/10/20 00:34:08;;;;;;;5.13;2.30;;;;;;;;;;4974222;28;20190;-77
2021/10/20 00:37:12;;;;;;;6.27;2.33;;;;;;;;;;4962205;28;20197;-77
2021/10/20 00:40:16;;;;;;;3.50;2.17;;;;;;;;;;4974428;28;20187;-77
2021/10/20 00:43:22;;;;;;;2.80;2.20;;;;;;;;;;4974265;28;20198;-77
2021/10/20 00:46:30;;;;;;;3.70;2.40;;;;;;;;;;4974378;28;20187;-77
2021/10/20 00:49:34;;;;;;;3.47;2.20;;;;;;;;;;4973546;28;20635;-77
2021/10/20 00:52:41;;;;;;;9.57;2.30;;;;;;;;;;4973912;28;20239;-77
2021/10/20 00:55:45;;;;;;;3.30;2.47;;;;;;;;;;4974307;28;20183;-77
2021/10/20 00:58:50;;;;;;;5.93;2.67;;;;;;;;;;4973474;28;20183;-77
2021/10/20 01:01:54;;;;;;;3.03;2.50;;;;;;;;;;4973948;28;20222;-77
2021/10/20 01:04:58;;;;;;;3.77;2.37;;;;;;;;;;4969135;28;20661;-77
2021/10/20 01:08:03;;;;;;;3.40;2.20;;;;;;;;;;4992907;28;20210;-77
2021/10/20 01:11:08;;;;;;;2.37;2.07;;;;;;;;;;4992002;28;20242;-77
2021/10/20 01:14:13;;;;;;;4.93;2.37;;;;;;;;;;4991431;28;20197;-77
2021/10/20 01:17:17;;;;;;;2.70;2.00;;;;;;;;;;4977555;28;20214;-77
2021/10/20 01:20:29;;;;;;;3.17;2.40;;;;;;;;;;4958435;29;20188;-77
2021/10/20 01:23:33;;;;;;;2.70;1.97;;;;;;;;;;4975272;28;20202;-76
2021/10/20 01:26:37;;;;;;;4.07;2.30;;;;;;;;;;4984808;28;20194;-77
2021/10/20 01:29:41;;;;;;;4.57;2.40;;;;;;;;;;4958235;29;20191;-77
2021/10/20 01:32:45;;;;;;;2.90;2.33;;;;;;;;;;4980457;28;20237;-77
2021/10/20 01:35:49;;;;;;;3.70;2.60;;;;;;;;;;4996688;28;20190;-77
2021/10/20 01:38:53;;;;;;;2.33;1.97;;;;;;;;;;4995938;28;20220;-77
2021/10/20 01:41:58;;;;;;;5.97;2.20;;;;;;;;;;4984312;28;20217;-77
2021/10/20 01:45:06;;;;;;;2.53;2.10;;;;;;;;;;4968686;28;20667;-77
2021/10/20 01:48:10;;;;;;;2.70;2.10;;;;;;;;;;4977126;28;20186;-77
2021/10/20 01:51:15;;;;;;;3.33;2.10;;;;;;;;;;4976187;28;20230;-77
2021/10/20 01:54:19;;;;;;;4.43;2.60;;;;;;;;;;4976041;28;20207;-77
2021/10/20 01:57:23;;;;;;;4.53;2.17;;;;;;;;;;4964746;28;20661;-77
2021/10/20 02:00:27;;;;;;;3.60;2.10;;;;;;;;;;4970909;28;20363;-77
2021/10/20 02:03:31;;;;;;;3.63;2.27;;;;;;;;;;4975948;28;20179;-77
2021/10/20 02:06:36;;;;;;;2.53;2.20;;;;;;;;;;4975868;28;20191;-77
2021/10/20 02:09:41;;;;;;;2.63;2.10;;;;;;;;;;4976502;28;20552;-77
2021/10/20 02:12:45;;;;;;;2.87;2.10;;;;;;;;;;4976396;28;20234;-77
2021/10/20 02:15:49;;;;;;;6.00;2.60;;;;;;;;;;4966551;28;20534;-77
2021/10/20 02:18:53;;;;;;;4.33;2.20;;;;;;;;;;4980341;28;20194;-77
2021/10/20 02:21:59;;;;;;;5.73;2.50;;;;;;;;;;4995545;28;20222;-77
2021/10/20 02:25:05;;;;;;;2.90;2.23;;;;;;;;;;4991396;28;20662;-77
2021/10/20 02:28:09;;;;;;;3.10;2.20;;;;;;;;;;4973112;28;20194;-77
2021/10/20 02:31:13;;;;;;;2.60;2.37;;;;;;;;;;4981328;28;20234;-77
2021/10/20 02:34:19;;;;;;;3.13;2.60;;;;;;;;;;4976343;28;20194;-77
2021/10/20 02:37:24;;;;;;;5.77;2.23;;;;;;;;;;4976724;28;20195;-77
2021/10/20 02:40:28;;;;;;;3.47;2.27;;;;;;;;;;4986307;28;20195;-76
2021/10/20 02:43:35;;;;;;;4.87;2.37;;;;;;;;;;4976195;28;20186;-77
2021/10/20 02:46:58;;;;;;;2.60;2.27;;;;;;;;;;4982679;28;20543;-77
2021/10/20 02:50:04;;;;;;;3.43;2.10;;;;;;;;;;4975957;28;20191;-77
2021/10/20 02:53:08;;;;;;;2.83;2.30;;;;;;;;;;4990320;28;20571;-76
2021/10/20 02:56:15;;;;;;;4.00;2.20;;;;;;;;;;4975455;28;20195;-77
2021/10/20 02:59:19;;;;;;;2.70;2.33;;;;;;;;;;4970954;28;20194;-77
2021/10/20 03:02:26;;;;;;;4.90;1.97;;;;;;;;;;4964318;28;20233;-77
2021/10/20 03:05:31;;;;;;;3.27;2.20;;;;;;;;;;4982766;28;20194;-77
2021/10/20 03:08:35;;;;;;;2.90;2.13;;;;;;;;;;4965130;28;20195;-77
2021/10/20 03:11:39;;;;;;;2.70;2.00;;;;;;;;;;4955823;29;20575;-77
2021/10/20 03:14:44;;;;;;;3.90;2.20;;;;;;;;;;4975016;28;20647;-77
2021/10/20 03:17:48;;;;;;;3.80;2.30;;;;;;;;;;5006478;23;20712;-76
2021/10/20 03:20:52;;;;;;;2.30;1.90;;;;;;;;;;5022606;28;20220;-76
2021/10/20 03:23:56;;;;;;;4.13;2.40;;;;;;;;;;5030802;28;20188;-76
2021/10/20 03:27:02;;;;;;;2.30;2.10;;;;;;;;;;5044497;28;20192;-75
2021/10/20 03:30:06;;;;;;;1.93;1.60;;;;;;;;;;5039291;28;20180;-76
2021/10/20 03:33:11;;;;;;;2.13;1.80;;;;;;;;;;5033754;28;20209;-76
2021/10/20 03:36:15;;;;;;;2.57;2.10;;;;;;;;;;5021869;28;20185;-76
2021/10/20 03:39:19;;;;;;;5.90;2.13;;;;;;;;;;5010376;28;20219;-75
2021/10/20 03:42:23;;;;;;;4.43;2.00;;;;;;;;;;5037091;28;20216;-76
2021/10/20 03:45:28;;;;;;;2.47;1.70;;;;;;;;;;5041544;28;20188;-76
2021/10/20 03:48:32;;;;;;;3.00;2.00;;;;;;;;;;5053474;28;20184;-76
2021/10/20 03:51:36;;;;;;;2.17;1.80;;;;;;;;;;5041203;28;20689;-76
2021/10/20 03:54:40;;;;;;;2.63;1.90;;;;;;;;;;5028554;28;20184;-75
2021/10/20 03:57:45;;;;;;;3.73;1.93;;;;;;;;;;5010097;28;20189;-75
2021/10/20 04:00:50;;;;;;;4.40;1.87;;;;;;;;;;5034093;28;20710;-75
2021/10/20 04:03:55;;;;;;;2.67;1.80;;;;;;;;;;5040772;28;20663;-75
2021/10/20 04:06:59;;;;;;;2.33;1.60;;;;;;;;;;5031180;28;20659;-75
2021/10/20 04:10:03;;;;;;;6.23;2.03;;;;;;;;;;5028800;28;20654;-76
2021/10/20 04:13:08;;;;;;;2.70;2.10;;;;;;;;;;5051144;28;20228;-76
2021/10/20 04:16:12;;;;;;;3.20;2.10;;;;;;;;;;5033435;28;20675;-76
2021/10/20 04:19:16;;;;;;;3.73;2.10;;;;;;;;;;5021347;28;20212;-76
2021/10/20 04:22:20;;;;;;;2.47;2.20;;;;;;;;;;5020751;28;20548;-75
2021/10/20 04:25:25;;;;;;;3.33;2.67;;;;;;;;;;5024902;28;20663;-75
2021/10/20 04:28:29;;;;;;;4.07;2.43;;;;;;;;;;5053172;28;20188;-75
2021/10/20 04:31:33;;;;;;;2.53;2.00;;;;;;;;;;5041347;28;20224;-75
2021/10/20 04:34:37;;;;;;;6.40;2.33;;;;;;;;;;5034010;28;20180;-75
2021/10/20 04:37:41;;;;;;;3.53;2.10;;;;;;;;;;5052399;28;20184;-75
2021/10/20 04:40:45;;;;;;;2.63;2.20;;;;;;;;;;5039445;28;20188;-75
2021/10/20 04:43:50;;;;;;;3.13;2.00;;;;;;;;;;5053117;28;20619;-76
2021/10/20 04:46:54;;;;;;;6.13;2.20;;;;;;;;;;5053039;28;20184;-75
2021/10/20 04:50:00;;;;;;;2.37;1.80;;;;;;;;;;5029694;28;20188;-75
2021/10/20 04:53:04;;;;;;;2.40;1.80;;;;;;;;;;5053924;28;20698;-75
2021/10/20 04:56:08;;;;;;;3.33;2.00;;;;;;;;;;5038102;28;20192;-75
2021/10/20 04:59:13;;;;;;;2.10;1.83;;;;;;;;;;5024866;28;20529;-75
2021/10/20 05:02:17;;;;;;;3.43;2.20;;;;;;;;;;5036591;28;20695;-75
2021/10/20 05:05:21;;;;;;;3.73;2.53;;;;;;;;;;5052915;28;20662;-76
2021/10/20 05:08:25;;;;;;;6.40;2.70;;;;;;;;;;5025644;28;20204;-76
2021/10/20 05:11:29;;;;;;;3.27;2.10;;;;;;;;;;5040063;28;20220;-76
2021/10/20 05:14:33;;;;;;;4.37;1.97;;;;;;;;;;5042477;28;20192;-76
2021/10/20 05:17:39;;;;;;;4.63;2.60;;;;;;;;;;5055554;28;21091;-76
2021/10/20 05:20:43;;;;;;;3.47;2.23;;;;;;;;;;5036732;28;20196;-76
2021/10/20 05:23:50;;;;;;;5.17;3.37;;;;;;;;;;5038665;28;20361;-76
2021/10/20 05:26:56;;;;;;;3.07;2.23;;;;;;;;;;5032485;28;20646;-76
2021/10/20 05:30:01;;;;;;;2.87;2.47;;;;;;;;;;5044106;28;20184;-76
2021/10/20 05:33:05;;;;;;;3.20;2.43;;;;;;;;;;5048490;28;20209;-76
2021/10/20 05:36:10;;;;;;;4.43;2.10;;;;;;;;;;5024127;28;20635;-76
2021/10/20 05:39:14;;;;;;;4.27;2.53;;;;;;;;;;5036775;28;20193;-76
2021/10/20 05:42:18;;;;;;;6.30;2.10;;;;;;;;;;5043153;28;20219;-76
2021/10/20 05:45:25;;;;;;;3.27;2.27;;;;;;;;;;5035950;28;20193;-76
2021/10/20 05:48:31;;;;;;;3.30;2.60;;;;;;;;;;5055740;28;20184;-75
2021/10/20 05:51:36;;;;;;;2.27;2.07;;;;;;;;;;5043444;28;20690;-75
2021/10/20 05:54:40;;;;;;;3.70;1.70;;;;;;;;;;5055628;28;20176;-76
2021/10/20 05:57:44;;;;;;;2.73;1.90;;;;;;;;;;5055524;28;20184;-76
2021/10/20 06:00:48;;;;;;;2.67;2.20;;;;;;;;;;5031879;28;20188;-76
2021/10/20 06:03:52;;;;;;;9.57;6.87;;;;;;;;;;5042071;28;20176;-76
2021/10/20 06:06:56;;;;;;;5.17;3.70;;;;;;;;;;5043163;28;20540;-76
2021/10/20 06:10:01;;;;;;;3.37;2.70;;;;;;;;;;5055307;28;20188;-76
2021/10/20 06:13:05;;;;;;;3.13;2.70;;;;;;;;;;5055469;28;20212;-75
2021/10/20 06:16:11;;;;;;;4.43;2.57;;;;;;;;;;5043212;28;20204;-76
2021/10/20 06:19:14;;;;;;;3.67;2.60;;;;;;;;;;5055444;28;20208;-76
2021/10/20 06:22:19;;;;;;;2.47;2.27;;;;;;;;;;5042807;28;20215;-75
2021/10/20 06:25:23;;;;;;;5.00;2.10;;;;;;;;;;5055396;28;20184;-75
2021/10/20 06:28:27;;;;;;;3.20;2.00;;;;;;;;;;5055029;28;20195;-75
2021/10/20 06:31:32;;;;;;;2.67;2.07;;;;;;;;;;5055067;28;20219;-75
2021/10/20 06:34:36;;;;;;;2.67;1.77;;;;;;;;;;5054943;28;20176;-75
2021/10/20 06:37:45;;;;;;;6.27;2.73;;;;;;;;;;5055084;28;20176;-75
2021/10/20 06:40:50;;;;;;;4.57;3.20;;;;;;;;;;5054999;28;20220;-75
2021/10/20 06:43:54;;;;;;;5.23;3.17;;;;;;;;;;5042833;28;20184;-75
2021/10/20 06:46:59;;;;;;;2.83;2.60;;;;;;;;;;5054658;28;20193;-75
2021/10/20 06:50:05;;;;;;;2.77;2.27;;;;;;;;;;5054911;28;20185;-76
2021/10/20 06:53:09;;;;;;;4.73;2.73;;;;;;;;;;5054700;28;20216;-75
2021/10/20 06:56:13;;;;;;;4.00;2.57;;;;;;;;;;5042480;28;20200;-76
2021/10/20 06:59:17;;;;;;;2.47;2.27;;;;;;;;;;5019570;28;20204;-75
2021/10/20 07:02:22;;;;;;;4.10;2.80;;;;;;;;;;5042127;28;20215;-75
2021/10/20 07:05:26;;;;;;;3.50;3.00;;;;;;;;;;5054334;28;20631;-75
2021/10/20 07:08:30;;;;;;;3.20;2.80;;;;;;;;;;5054449;28;20184;-75
2021/10/20 07:11:34;;;;;;;5.90;3.27;;;;;;;;;;5054163;28;20224;-75
2021/10/20 07:14:39;;;;;;;7.17;2.93;;;;;;;;;;5041835;28;20180;-76
2021/10/20 07:17:44;;;;;;;4.80;3.00;;;;;;;;;;5030377;28;20204;-76
2021/10/20 07:20:48;;;;;;;3.63;2.87;;;;;;;;;;5054012;28;20192;-75
2021/10/20 07:23:52;;;;;;;4.93;2.77;;;;;;;;;;5054041;28;20184;-76
2021/10/20 07:26:56;;;;;;;6.33;3.03;;;;;;;;;;5053887;28;20184;-76
2021/10/20 07:30:01;;;;;;;5.33;3.00;;;;;;;;;;5054151;28;20631;-75
2021/10/20 07:33:06;;;;;;;7.77;3.00;;;;;;;;;;5053724;28;20551;-75
2021/10/20 07:36:10;;;;;;;9.67;4.10;;;;;;;;;;5041779;28;20188;-75
2021/10/20 07:39:14;;;;;;;6.40;4.23;;;;;;;;;;5041555;28;20524;-75
2021/10/20 07:42:18;;;;;;;8.20;6.20;;;;;;;;;;5053866;28;20223;-76
2021/10/20 07:45:24;;;;;;;15.20;10.37;;;;;;;;;;5053897;28;20180;-75
2021/10/20 07:48:28;;;;;;;10.50;7.73;;;;;;;;;;5053595;28;20191;-76
2021/10/20 07:51:33;;;;;;;10.43;7.73;;;;;;;;;;5041460;28;20223;-76
2021/10/20 07:54:38;;;;;;;11.40;8.20;;;;;;;;;;5053315;28;20578;-75
2021/10/20 07:57:42;;;;;;;10.60;7.63;;;;;;;;;;5053391;28;20193;-76
2021/10/20 08:00:46;;;;;;;6.03;4.30;;;;;;;;;;5040995;28;20180;-76
2021/10/20 08:03:51;;;;;;;8.53;2.80;;;;;;;;;;5053239;28;20180;-75
2021/10/20 08:06:55;;;;;;;3.60;2.50;;;;;;;;;;5041242;28;20631;-75
2021/10/20 08:09:59;;;;;;;5.23;2.33;;;;;;;;;;5053232;28;20188;-76
2021/10/20 08:13:03;;;;;;;4.37;3.77;;;;;;;;;;5029711;28;20671;-75
2021/10/20 08:16:07;;;;;;;3.33;3.03;;;;;;;;;;5041200;28;20642;-76
2021/10/20 08:19:11;;;;;;;3.63;2.50;;;;;;;;;;5040805;28;20207;-76
2021/10/20 08:22:15;;;;;;;4.00;2.20;;;;;;;;;;5040786;28;20219;-76
2021/10/20 08:25:19;;;;;;;3.30;1.73;;;;;;;;;;5041441;28;20180;-76
2021/10/20 08:28:24;;;;;;;2.40;2.07;;;;;;;;;;5040332;28;20175;-75
2021/10/20 08:31:28;;;;;;;3.10;2.80;;;;;;;;;;5052138;28;20223;-76
2021/10/20 08:34:32;;;;;;;3.63;2.47;;;;;;;;;;5040896;28;20216;-75
2021/10/20 08:37:36;;;;;;;3.37;2.37;;;;;;;;;;5041241;28;20516;-75
2021/10/20 08:40:45;;;;;;;5.93;2.27;;;;;;;;;;5040620;28;20184;-76
2021/10/20 08:43:49;;;;;;;3.23;2.30;;;;;;;;;;5052863;28;20184;-76
2021/10/20 08:46:53;;;;;;;2.90;2.40;;;;;;;;;;5040786;28;20172;-76
2021/10/20 08:49:58;;;;;;;4.50;2.80;;;;;;;;;;5040861;28;20176;-75
2021/10/20 08:53:02;;;;;;;2.83;2.60;;;;;;;;;;5052649;28;20216;-75
2021/10/20 08:56:06;;;;;;;2.73;2.40;;;;;;;;;;5029537;28;20176;-76
2021/10/20 08:59:11;;;;;;;3.57;2.43;;;;;;;;;;5040697;28;20192;-75
2021/10/20 09:02:16;;;;;;;6.03;2.97;;;;;;;;;;5029185;28;20223;-75
2021/10/20 09:05:23;;;;;;;7.13;3.43;;;;;;;;;;5040703;28;20184;-76
2021/10/20 09:08:38;;;;;;;4.93;3.60;;;;;;;;;;5053051;28;20181;-75
2021/10/20 09:11:43;;;;;;;6.20;2.37;;;;;;;;;;5052533;28;20220;-75
2021/10/20 09:14:47;;;;;;;3.40;2.60;;;;;;;;;;5052764;28;20670;-75
2021/10/20 09:18:16;;;;;;;4.50;2.30;;;;;;;;;;5053620;28;20208;-76
2021/10/20 09:21:21;;;;;;;7.63;2.90;;;;;;;;;;5004981;28;20566;-72
2021/10/20 09:24:33;;;;;;;6.27;2.57;;;;;;;;;;4993350;28;20200;-72
2021/10/20 09:27:37;;;;;;;5.37;2.13;;;;;;;;;;4993529;28;20186;-73
2021/10/20 09:30:42;;;;;;;4.27;2.30;;;;;;;;;;4993127;28;20182;-73
2021/10/20 09:33:46;;;;;;;3.00;2.40;;;;;;;;;;4981500;28;20218;-73
2021/10/20 09:36:52;;;;;;;7.00;3.97;;;;;;;;;;4981275;28;20187;-73
2021/10/20 09:40:04;;;;;;;3.40;3.10;;;;;;;;;;4984209;28;20187;-73
2021/10/20 09:43:11;;;;;;;2.83;2.00;;;;;;;;;;4984640;28;20190;-73
2021/10/20 09:46:15;;;;;;;3.47;2.10;;;;;;;;;;4996720;28;20186;-73
2021/10/20 09:49:21;;;;;;;6.17;2.10;;;;;;;;;;4984485;28;20182;-73
2021/10/20 09:52:25;;;;;;;5.93;2.23;;;;;;;;;;4984412;28;20222;-73
2021/10/20 09:55:31;;;;;;;4.50;2.03;;;;;;;;;;4984470;28;20178;-73
2021/10/20 09:58:35;;;;;;;3.13;2.20;;;;;;;;;;4996523;28;20198;-73
2021/10/20 10:01:41;;;;;;;4.87;2.17;;;;;;;;;;4984489;28;20222;-72
2021/10/20 10:04:46;;;;;;;2.97;1.80;;;;;;;;;;4984136;28;20179;-73
2021/10/20 10:07:50;;;;;;;3.57;1.83;;;;;;;;;;4996318;28;20182;-73
2021/10/20 10:10:54;;;;;;;6.90;2.30;;;;;;;;;;4972966;28;20218;-73
2021/10/20 10:14:02;;;;;;;5.00;2.10;;;;;;;;;;4984156;28;20653;-73
2021/10/20 10:17:07;;;;;;;3.20;1.90;;;;;;;;;;4984167;28;20527;-73
2021/10/20 10:20:17;;;;;;;2.27;1.90;;;;;;;;;;4995835;28;20665;-73
2021/10/20 10:23:24;;;;;;;6.17;1.90;;;;;;;;;;4995849;28;20182;-73
2021/10/20 10:26:33;;;;;;;5.83;2.17;;;;;;;;;;4995784;28;20538;-73
2021/10/20 10:29:54;;;;;;;3.00;1.83;;;;;;;;;;4995698;28;20202;-73
2021/10/20 10:33:00;;;;;;;2.40;1.97;;;;;;;;;;4972563;28;20194;-73
2021/10/20 10:36:12;;;;;;;3.80;1.87;;;;;;;;;;4983877;28;20178;-73
2021/10/20 10:39:17;;;;;;;6.90;2.07;;;;;;;;;;4995300;28;20187;-73
2021/10/20 10:42:35;;;;;;;2.53;1.60;;;;;;;;;;4995718;28;20219;-73
2021/10/20 10:45:39;;;;;;;6.37;1.80;;;;;;;;;;4990343;28;20188;-73
2021/10/20 10:48:44;;;;;;;3.90;1.80;;;;;;;;;;4995411;28;20536;-73
2021/10/20 10:52:13;;;;;;;4.67;2.00;;;;;;;;;;4971949;28;20215;-73
2021/10/20 10:55:23;;;;;;;6.33;1.93;;;;;;;;;;4995201;28;20220;-73
2021/10/20 10:58:27;;;;;;;2.83;1.63;;;;;;;;;;4994670;28;20191;-73
2021/10/20 11:01:40;;;;;;;2.20;1.90;;;;;;;;;;4983220;28;20559;-73
2021/10/20 11:04:45;;;;;;;3.83;1.90;;;;;;;;;;4983037;28;20186;-73
2021/10/20 11:07:51;;;;;;;6.00;2.50;;;;;;;;;;4994718;28;20186;-73
2021/10/20 11:10:55;;;;;;;2.90;2.07;;;;;;;;;;4983158;28;20217;-73
2021/10/20 11:14:02;;;;;;;3.47;1.93;;;;;;;;;;4992512;28;20229;-73
2021/10/20 11:17:11;;;;;;;3.03;2.47;;;;;;;;;;4994869;28;20522;-72
2021/10/20 11:20:20;;;;;;;2.67;2.03;;;;;;;;;;4994766;28;20202;-73
2021/10/20 11:23:29;;;;;;;2.93;1.73;;;;;;;;;;4982957;28;20191;-72
2021/10/20 11:26:35;;;;;;;2.27;1.87;;;;;;;;;;4982152;28;20195;-72
2021/10/20 11:29:45;;;;;;;2.63;2.20;;;;;;;;;;4994217;28;20202;-72
2021/10/20 11:32:49;;;;;;;3.17;2.00;;;;;;;;;;4981090;28;20693;-72
2021/10/20 11:35:56;;;;;;;3.83;2.00;;;;;;;;;;4988656;28;20527;-73
2021/10/20 11:39:04;;;;;;;6.27;2.17;;;;;;;;;;4990262;28;20652;-72
2021/10/20 11:42:12;;;;;;;3.77;2.13;;;;;;;;;;4989934;28;20234;-72
2021/10/20 11:45:18;;;;;;;7.10;2.10;;;;;;;;;;4990650;28;20197;-72
2021/10/20 11:48:24;;;;;;;2.90;1.83;;;;;;;;;;4990394;28;20198;-74
2021/10/20 11:51:30;;;;;;;4.60;2.20;;;;;;;;;;4990634;28;20222;-72
2021/10/20 11:54:36;;;;;;;4.63;2.00;;;;;;;;;;4990202;28;20244;-72
2021/10/20 11:57:44;;;;;;;4.77;2.20;;;;;;;;;;4978857;28;20182;-72
2021/10/20 12:00:57;;;;;;;4.00;2.20;;;;;;;;;;4978297;28;20186;-72
2021/10/20 12:04:06;;;;;;;2.47;1.93;;;;;;;;;;4983356;28;20542;-72
2021/10/20 12:07:13;;;;;;;3.27;1.87;;;;;;;;;;4991025;28;20613;-73
2021/10/20 12:10:19;;;;;;;5.87;1.80;;;;;;;;;;4968886;28;20198;-73
2021/10/20 12:13:24;;;;;;;2.37;2.00;;;;;;;;;;4990105;28;20198;-72
2021/10/20 12:16:28;;;;;;;4.33;2.00;;;;;;;;;;4989915;28;20194;-72
2021/10/20 12:19:35;;;;;;;2.33;2.10;;;;;;;;;;4974644;28;20206;-72
2021/10/20 12:22:41;;;;;;;4.17;2.00;;;;;;;;;;4990041;28;20225;-73
2021/10/20 12:25:46;;;;;;;5.53;1.93;;;;;;;;;;4990158;28;20538;-73
2021/10/20 12:28:50;;;;;;;2.40;1.90;;;;;;;;;;4989810;28;20187;-73
2021/10/20 12:31:58;;;;;;;3.07;1.70;;;;;;;;;;4970302;28;20230;-73
2021/10/20 12:35:04;;;;;;;3.63;1.97;;;;;;;;;;4958996;28;20693;-73
2021/10/20 12:38:11;;;;;;;2.30;1.70;;;;;;;;;;4987446;28;20198;-73
2021/10/20 12:41:27;;;;;;;3.83;1.70;;;;;;;;;;4989113;28;20229;-73
2021/10/20 12:44:31;;;;;;;2.90;1.80;;;;;;;;;;4989011;28;20192;-73
2021/10/20 12:47:46;;;;;;;3.67;1.97;;;;;;;;;;4947765;28;20632;-75
2021/10/20 12:50:50;;;;;;;3.37;1.67;;;;;;;;;;4986466;28;20224;-73
2021/10/20 12:54:00;;;;;;;2.87;1.73;;;;;;;;;;4977604;28;20649;-73
2021/10/20 12:57:05;;;;;;;4.83;1.67;;;;;;;;;;4988950;28;20535;-73
2021/10/20 13:00:18;;;;;;;5.63;1.77;;;;;;;;;;4969843;28;20187;-73
2021/10/20 13:03:22;;;;;;;2.43;1.77;;;;;;;;;;4962084;28;20632;-73
2021/10/20 13:06:27;;;;;;;4.57;1.90;;;;;;;;;;4962655;28;20201;-74
2021/10/20 13:09:31;;;;;;;2.60;1.80;;;;;;;;;;4962119;28;20187;-73
2021/10/20 13:12:37;;;;;;;2.87;1.73;;;;;;;;;;4962070;28;20706;-74
2021/10/20 13:15:41;;;;;;;2.97;1.70;;;;;;;;;;4977859;28;20216;-74
2021/10/20 13:18:45;;;;;;;3.23;1.90;;;;;;;;;;4977467;28;20215;-74
2021/10/20 13:21:49;;;;;;;1.77;1.67;;;;;;;;;;4977685;28;20228;-74
2021/10/20 13:24:53;;;;;;;2.83;1.80;;;;;;;;;;4965566;28;20179;-74
2021/10/20 13:27:58;;;;;;;6.03;1.90;;;;;;;;;;4965558;28;20186;-74
2021/10/20 13:31:02;;;;;;;3.20;1.77;;;;;;;;;;4976747;28;20578;-75
2021/10/20 13:34:06;;;;;;;5.10;1.70;;;;;;;;;;4965453;28;20179;-74
2021/10/20 13:37:11;;;;;;;3.13;1.70;;;;;;;;;;4977287;28;20191;-74
2021/10/20 13:40:16;;;;;;;2.10;1.90;;;;;;;;;;4977521;28;20522;-74
2021/10/20 13:43:21;;;;;;;2.23;1.80;;;;;;;;;;4977425;28;20187;-74
2021/10/20 13:46:25;;;;;;;3.10;2.10;;;;;;;;;;4965294;28;20183;-74
2021/10/20 13:49:28;;;;;;;7.37;1.70;;;;;;;;;;4954313;28;20203;-74
2021/10/20 13:52:32;;;;;;;3.43;1.90;;;;;;;;;;4965016;28;20218;-75
2021/10/20 13:55:36;;;;;;;4.23;2.33;;;;;;;;;;4964981;28;20555;-74
2021/10/20 13:58:41;;;;;;;4.60;1.90;;;;;;;;;;4977108;28;20202;-74
2021/10/20 14:01:45;;;;;;;2.27;1.80;;;;;;;;;;4976901;28;20223;-74
2021/10/20 14:04:53;;;;;;;3.00;1.90;;;;;;;;;;4977038;28;20183;-74
2021/10/20 14:07:57;;;;;;;3.73;2.07;;;;;;;;;;4965089;28;20191;-74
2021/10/20 14:11:01;;;;;;;2.00;1.80;;;;;;;;;;4964712;28;20705;-74
2021/10/20 14:14:05;;;;;;;4.80;2.00;;;;;;;;;;4965020;28;20187;-74
2021/10/20 14:17:12;;;;;;;3.40;2.10;;;;;;;;;;4964681;28;20528;-74
2021/10/20 14:20:16;;;;;;;2.07;1.90;;;;;;;;;;4976382;28;20206;-74
2021/10/20 14:23:20;;;;;;;2.20;1.70;;;;;;;;;;4953561;28;20202;-73
2021/10/20 14:26:24;;;;;;;4.07;2.43;;;;;;;;;;4975302;28;20202;-74
2021/10/20 14:29:28;;;;;;;3.13;1.87;;;;;;;;;;4964483;28;20206;-74
2021/10/20 14:32:33;;;;;;;3.90;2.10;;;;;;;;;;4976148;28;20222;-73
2021/10/20 14:35:37;;;;;;;3.10;1.77;;;;;;;;;;4976093;28;20230;-74
2021/10/20 14:38:41;;;;;;;4.37;2.30;;;;;;;;;;4965760;28;20186;-73
2021/10/20 14:41:46;;;;;;;2.77;2.10;;;;;;;;;;4979768;28;20229;-74
2021/10/20 14:44:50;;;;;;;6.53;2.43;;;;;;;;;;4971808;28;20211;-74
2021/10/20 14:47:57;;;;;;;4.03;2.23;;;;;;;;;;4985020;28;20209;-73
2021/10/20 14:51:02;;;;;;;3.93;2.50;;;;;;;;;;4991317;28;20241;-73
2021/10/20 14:54:07;;;;;;;5.47;2.00;;;;;;;;;;4991400;28;20190;-73
2021/10/20 14:57:11;;;;;;;2.77;2.33;;;;;;;;;;4979716;28;20183;-73
2021/10/20 15:00:15;;;;;;;5.10;2.20;;;;;;;;;;4979545;28;20186;-73
2021/10/20 15:03:19;;;;;;;4.47;2.40;;;;;;;;;;4991093;28;20564;-72
2021/10/20 15:06:23;;;;;;;6.60;2.43;;;;;;;;;;4978639;28;20879;-72
2021/10/20 15:09:27;;;;;;;3.30;2.33;;;;;;;;;;4979448;28;20194;-72
2021/10/20 15:12:31;;;;;;;3.83;2.33;;;;;;;;;;4991388;28;20221;-73
2021/10/20 15:15:35;;;;;;;5.73;2.40;;;;;;;;;;4991038;28;20685;-73
2021/10/20 15:21:48;;;;;;;3.43;2.37;;;;;;;;;;4987349;28;20836;-73
2021/10/20 15:24:52;;;;;;;4.13;2.60;;;;;;;;;;4958151;28;20210;-72
2021/10/20 15:27:56;;;;;;;4.77;2.03;;;;;;;;;;4978956;28;20194;-72
2021/10/20 15:31:02;;;;;;;3.27;2.50;;;;;;;;;;4990853;28;20218;-73
2021/10/20 15:34:07;;;;;;;3.97;2.57;;;;;;;;;;4991044;28;20195;-73
2021/10/20 15:37:11;;;;;;;6.03;2.50;;;;;;;;;;4960487;28;20278;-73
2021/10/20 15:40:16;;;;;;;9.10;2.50;;;;;;;;;;4991074;28;20186;-73
2021/10/20 15:43:20;;;;;;;7.40;2.60;;;;;;;;;;4990974;28;20268;-73
2021/10/20 15:46:24;;;;;;;4.20;2.57;;;;;;;;;;4990544;28;20201;-73
2021/10/20 15:49:28;;;;;;;5.97;2.70;;;;;;;;;;4990749;28;20645;-73
2021/10/20 15:52:33;;;;;;;10.40;2.50;;;;;;;;;;4990113;28;20237;-73
2021/10/20 15:55:37;;;;;;;5.87;3.13;;;;;;;;;;4990385;28;20233;-72
2021/10/20 15:58:43;;;;;;;6.90;2.77;;;;;;;;;;4978376;28;20202;-72
2021/10/20 16:01:47;;;;;;;3.00;2.70;;;;;;;;;;4978508;28;20221;-72
2021/10/20 16:04:51;;;;;;;3.53;2.50;;;;;;;;;;4973821;28;20186;-72
2021/10/20 16:07:56;;;;;;;8.17;2.60;;;;;;;;;;4977979;28;20194;-72
2021/10/20 16:11:04;;;;;;;4.13;2.10;;;;;;;;;;4989893;28;20226;-72
2021/10/20 16:14:09;;;;;;;3.57;2.47;;;;;;;;;;4963189;28;20207;-72
2021/10/20 16:17:13;;;;;;;3.90;2.50;;;;;;;;;;4989891;28;20213;-72
2021/10/20 16:20:17;;;;;;;3.97;2.30;;;;;;;;;;4988612;28;20684;-72
2021/10/20 16:23:21;;;;;;;7.03;2.60;;;;;;;;;;4990814;28;20652;-72
2021/10/20 16:26:25;;;;;;;4.50;2.80;;;;;;;;;;4990249;28;20198;-72
2021/10/20 16:29:30;;;;;;;5.63;2.53;;;;;;;;;;4989875;28;20581;-73
2021/10/20 16:32:34;;;;;;;5.60;2.80;;;;;;;;;;4966476;28;20221;-72
2021/10/20 16:35:40;;;;;;;4.10;2.80;;;;;;;;;;4970729;28;20791;-72
2021/10/20 16:38:44;;;;;;;6.23;2.63;;;;;;;;;;4986727;28;20688;-72
2021/10/20 16:41:48;;;;;;;5.43;3.03;;;;;;;;;;4989488;28;20229;-73
2021/10/20 16:44:52;;;;;;;7.90;2.70;;;;;;;;;;4969769;28;20195;-73
2021/10/20 16:47:57;;;;;;;8.07;2.70;;;;;;;;;;4959052;28;20551;-73
2021/10/20 16:51:01;;;;;;;3.80;2.43;;;;;;;;;;4993391;28;20715;-73
2021/10/20 16:54:05;;;;;;;4.67;2.83;;;;;;;;;;4993143;28;20194;-72
2021/10/20 16:57:10;;;;;;;3.13;2.40;;;;;;;;;;4981618;28;20218;-72
2021/10/20 17:00:15;;;;;;;3.97;2.17;;;;;;;;;;4980746;28;20543;-72
2021/10/20 17:03:20;;;;;;;3.53;2.13;;;;;;;;;;4993727;28;20202;-73
2021/10/20 17:06:24;;;;;;;3.87;2.47;;;;;;;;;;4993564;28;20186;-72
2021/10/20 17:09:28;;;;;;;3.90;2.60;;;;;;;;;;4981500;28;20201;-73
2021/10/20 17:12:33;;;;;;;4.57;2.40;;;;;;;;;;4992756;28;20221;-72
2021/10/20 17:15:38;;;;;;;4.47;2.67;;;;;;;;;;4993434;28;20226;-73
2021/10/20 17:18:42;;;;;;;3.10;2.40;;;;;;;;;;4980767;28;20209;-72
2021/10/20 17:21:46;;;;;;;6.00;2.60;;;;;;;;;;4993382;28;20577;-72
2021/10/20 17:24:50;;;;;;;3.60;2.33;;;;;;;;;;4992755;28;20194;-72
2021/10/20 17:27:55;;;;;;;4.00;2.57;;;;;;;;;;4993507;28;20182;-73
2021/10/20 17:31:00;;;;;;;5.83;2.70;;;;;;;;;;4980530;28;20234;-73
2021/10/20 17:34:04;;;;;;;3.67;2.40;;;;;;;;;;4970238;28;20182;-72
2021/10/20 17:37:09;;;;;;;3.00;2.40;;;;;;;;;;4992537;28;20317;-72
2021/10/20 17:40:16;;;;;;;2.93;2.17;;;;;;;;;;4992846;28;20198;-72
2021/10/20 17:43:23;;;;;;;4.10;2.50;;;;;;;;;;4992811;28;20229;-73
2021/10/20 17:46:27;;;;;;;2.40;2.20;;;;;;;;;;4991864;28;20206;-72
2021/10/20 17:49:31;;;;;;;4.77;2.30;;;;;;;;;;4974126;28;20202;-72
2021/10/20 17:52:36;;;;;;;8.23;2.60;;;;;;;;;;4982052;28;20225;-72
2021/10/20 17:55:40;;;;;;;4.23;2.37;;;;;;;;;;4991996;28;20190;-73
2021/10/20 17:58:44;;;;;;;5.10;2.70;;;;;;;;;;4977852;28;20276;-73
2021/10/20 18:01:48;;;;;;;2.93;2.07;;;;;;;;;;4992766;28;20213;-72
2021/10/20 18:04:52;;;;;;;4.03;2.50;;;;;;;;;;4976630;28;20206;-72
2021/10/20 18:07:59;;;;;;;3.40;2.33;;;;;;;;;;4991686;28;20198;-72
2021/10/20 18:11:04;;;;;;;3.80;2.33;;;;;;;;;;4983528;28;20234;-73
2021/10/20 18:14:08;;;;;;;4.40;2.20;;;;;;;;;;4972294;28;20182;-72
2021/10/20 18:17:13;;;;;;;3.17;2.40;;;;;;;;;;4988408;28;20218;-72
2021/10/20 18:20:21;;;;;;;5.00;2.63;;;;;;;;;;4992504;28;20210;-72
2021/10/20 18:23:25;;;;;;;5.57;2.97;;;;;;;;;;4992307;28;20194;-72
2021/10/20 18:26:30;;;;;;;4.53;2.20;;;;;;;;;;4956766;28;20646;-72
2021/10/20 18:29:34;;;;;;;5.37;2.73;;;;;;;;;;4960458;28;20183;-72
2021/10/20 18:32:38;;;;;;;3.53;2.47;;;;;;;;;;4960898;28;20571;-72